KGED

Delaware Coastal Airport

Georgetown, Delaware, USA
METAR KGED 180154Z AUTO 00000KT 10SM SCT075 OVC100 06/02 A3021 RMK AO2 RAB27E38 SLP229 P0000 T00610017
Observed Flight Rules
Dec-18 @ 01:54 UTC (an hour ago) Visual Flight Rules
Wind Visibility Clouds
Calm 10 miles
  • Scattered at 7,500' AGL
  • Overcast at 10,000' AGL
Temperatures Readings Precipitation
Current 6°C / 43°F
Dewpoint 2°C / 36°F
Humidity 76%
Altimeter 30.21" Hg
Pressure 1022.9 hPa
Elevation 19
Current Rain 0.005
METAR KGED 180154Z AUTO 00000KT 10SM SCT075 OVC100 06/02 A3021 RMK AO2 RAB27E38 SLP229 P0000 T00610017
Observed Flight Rules
Dec-18 @ 01:54 UTC
(an hour ago)
VFR
Wind Visibility
Calm 10 miles
Clouds
  • Scattered at 7,500' AGL
  • Overcast at 10,000' AGL
Temperature Dewpoint
6°C / 43°F 2°C / 36°F
Humidity Altimeter Pressure
76% 30.21" Hg 1022.9 hPa
Current Rain
0.005